Temps Etape 1 et Heures de D├ępart Etape 2  
 
HeureConducteurAsaCoéquipierVoitureGroupeClassePénaTempsEcarts
08h002ROUSSET EricLOZEREGOSSET Jean-DavidCITROËN C4 WRCFA8W 0:40:54,70 
08h0155BRUNET ThierryLOZEREBONICEL AdrienPEUGEOT 306 S16F200014 0:41:52,5000:57,80
08h0215ARZENO MathieuISTRESROCHE RomainRENAULT Clio R3RR3 0:42:03,8001:09,10
08h036ANDRÉ GérardLOZEREANDRÉ FrédéricPEUGEOT 207 S2000A7S 0:42:19,001:24,30
08h0417NICOLAS DorianALESNICOLAS LionelRENAULT Clio R3RR3 0:42:35,6001:40,90
08h0553MONTEIL JulienCIGALOISEMONTEIL RémyPEUGEOT 307F200014 0:42:53,9001:59,20
08h0614POUGNANT NicolasCIGALOISEVALENCIA DavidRENAULT Clio R3RR3 0:43:02,7002:08,0
08h0780PLAN MatthieuLOZEREPLAN ArnaudCITROËN C2F200013 0:43:04,1002:09,40
08h0879MALHAUTIER LudovicLOZERECHAPELLE SimonePEUGEOT 106 S16F200013 0:43:34,002:39,30
08h0919GUEDJ Jean-PaulCORBIERESDE MONTREDON Jean-FrançoisRENAULT Clio R3RR3 0:43:37,2002:42,50
08h1021VALENTIN LudovicLOZEREDELPUECH LudovicRENAULT Clio R3RR3 0:43:52,7002:58,0
08h1122OLMI GaëtanLOZERETURIERE FrédéricRENAULT Clio R3RR3 0:43:54,002:59,30
08h124ROCHÉ Jean-LucBERRYBROCOURT DavidSKODA Fabia R5RR5 0:44:13,2003:18,50
08h1331CLAVELLOUX OlivierONDAINEBEAL FrédéricCITROËN Saxo Kit CarFA6K 0:44:17,5003:22,80
08h1434TRIBOUILLOIS GaëlCIGALOISEARNAUD LaetitiaRENAULT Twingo R2RR2 0:44:19,003:24,30
08h1537VEYRUN GuillaumeLOZEREFRANÇOIS GuillaumeCITROËN C2 R2RR2 0:44:21,003:26,30
08h1624LAMOURET PaulCASTINEGOMBERT MathieuMITSUBISHI Lancer Evo9FN4 0:44:23,9003:29,20
08h179JANEL PascalHERAULTVILLEGAS RichardPORSCHE 997GT10 0:44:25,5003:30,80
08h1878CASTELBOU FranckLOZEREPRIVAT ChristopheCITROËN Saxo VTSF200013 0:44:44,003:49,30
08h191ROCA Gilles"66"MATAS NicolasSUBARU Impreza WRCFA8W 0:44:51,5003:56,80
08h2060ALBIN AurélienCIGALOISEMAZZEI DimitryPEUGEOT 306 S16F200014 0:44:51,9003:57,20
08h2145REY CharlesHAUTE PROVENCEUZZO CéliaPEUGEOT 306 S16FA7 0:44:54,1003:59,40
08h2240SOLANET JulienALESMAURIN MathieuRENAULT Clio WilliamsFA7 0:44:59,8004:05,10
08h2386DELAY FlorianGARD-CEVENNESLARGUIER HarmoniePEUGEOT 106 S16FN2 0:45:22,6004:27,90
08h2472TABUSSE SylvainLOZEREFELGEROLLES PascalCITROËN Saxo VTSF200013 0:45:24,9004:30,20
08h2571MACARY Julien"66"INIESTA MathieuPEUGEOT 206 XSF200013 0:45:50,5004:55,80
08h2676GIARDINA FabienALESVIALA VincentPEUGEOT 206 XSF200013 0:45:56,5005:01,80
08h2733MOTTARD JordanGRASSEBOLE-RICHARD MatthieuPEUGEOT 208 VTIRR2 0:45:58,2005:03,50
08h2839OTT JérémyFOREZNAVARRO SophiePEUGEOT 206 GTFA7 0:46:02,005:07,30
08h2938BLANC DavidLOZERERAUZIER AlbanCITROËN C2 R2RR2 0:46:10,2005:15,50
08h3025MOLLAS DavidLOZERECHARVAZ MichaelMITSUBISHI Lancer Evo9FN4 0:46:17,9005:23,20
08h3190MERLE RogerALESMERLE MarkPEUGEOT 205 RallyeF200012 0:46:40,3005:45,60
08h3288PAULUS BenjaminLOZEREGAVET BriceCITROËN Saxo VTSFN2 0:46:41,8005:47,10
08h3399BUHLER BastienALESCLEMENT LéaPEUGEOT 106 XSIFN1 0:46:45,3005:50,60
08h3474SALINAS RomainLEDENONBOUVIER VincentCITROËN Saxo VTSF200013 0:46:54,9006:00,20
08h35100BUHLER GaëlALESMOUTERDE VincentPEUGEOT 106 XSIFN1 0:46:56,5006:01,80
08h3659BOYER BernardALESRAOUX ErickOPEL KadettF200014 0:46:59,9006:05,20
08h3767SELLIER Julien BRESSE BUGEYBERTAZZO PatrickCITROËN Saxo VTSFA6 0:47:00,5006:05,80
08h3846BLANC BrunoLOZEREGROLIER CédricB.M.W. 318 iSFA7 0:47:17,8006:23,10
08h3943VIDAL ThierryONDAINELIOTIER Jean-MichelPEUGEOT 306 S16FA7 0:47:25,1006:30,40
08h4068BERGER SébastienHAUTE VALLÉE DE LA LOIREPORTE AnthonyCITROËN Saxo VTSFA6 0:47:28,1006:33,40
08h4170LUGAND Jean-DenisLOZERECOMBEMALE LoïcPEUGEOT 207 RcF200013 0:47:35,8006:41,10
08h4241SEGONDY MatthiasGARD-CEVENNESPROUZET LaurentPEUGEOT 206 GTFA7 0:47:50,5006:55,80
08h4366FERRARI MarcoGARD-CEVENNESMARQUIER BenjaminCITROËN Saxo VTSFA6 0:48:02,7007:08,0
08h4495SAUMADE YannALESBARDOUX PaulinePEUGEOT 106 XSIFN1 0:48:04,2007:09,50
08h4558CRESPIN BrunoGARD-CEVENNESANDRÉ RomainVOLKSWAGEN Golf GTIF200014 0:48:05,3007:10,60
08h4647HEBRARD MichelLOZERELAURAIRE PierrePEUGEOT 309 GTI 16SFA7 0:48:30,4007:35,70
08h4711FRAISSE SergeLOZEREGAUSSENT FlorenceTOYOTA Celica GT FourFA8 4:07:45,90Rallye 2
08h4850ROTURIER BriceLOZERESKIERSKI JoëlRENAULT Clio RSFA7 4:07:45,90Rallye 2
08h4987GARNERONE FabienLOZEREROUVIERE AlainCITROËN Saxo VTSFN2 0:48:45,8007:51,10
08h5094COMBET MaximeCIGALOISEMARIE GrégoryPEUGEOT 106 XSIFN1 0:49:18,9008:24,20
08h5151MARTEL HervéLOZEREMARTEL CatherinePEUGEOT 206 RcF200014 0:50:11,009:16,30
08h5256SERAY SylvainBOUCLES DE SEINEFOUQUERAY MathieuRENAULT Clio WilliamsF200014 4:07:45,90Rallye 2
08h5361FRES Jean-YvesLOZEREMOURET NicolasPEUGEOT 306 S16F200014 4:07:45,90Rallye 2
08h5497MARTI NicolasLOZEREBAI PerrinePEUGEOT 106 XSIFN1 0:50:18,8009:24,10
08h5596RIVRON LouisFOREZTENDILLE MélaniePEUGEOT 106 XSIFN1 0:52:30,2011:35,50